createdAt,value
2023-03-19T00:01:06.749Z,101257.79
2023-03-19T00:03:35.323Z,101257.58
2023-03-19T00:06:04.236Z,101258.59
2023-03-19T00:08:32.651Z,101258.00
2023-03-19T00:11:06.980Z,101253.27
2023-03-19T00:13:36.109Z,101261.60
2023-03-19T00:16:09.174Z,101257.21
2023-03-19T00:18:38.417Z,101254.23
2023-03-19T00:21:07.487Z,101257.70
2023-03-19T00:23:37.788Z,101255.59
2023-03-19T00:26:06.919Z,101257.81
2023-03-19T00:28:41.590Z,101258.00
2023-03-19T00:31:12.958Z,101254.95
2023-03-19T00:33:41.600Z,101252.67
2023-03-19T00:36:10.638Z,101251.15
2023-03-19T00:38:41.570Z,101250.27
2023-03-19T00:41:10.341Z,101247.66
2023-03-19T00:43:39.125Z,101247.88
2023-03-19T00:46:07.960Z,101245.75
2023-03-19T00:48:37.865Z,101246.25
2023-03-19T00:51:08.774Z,101243.53
2023-03-19T00:53:42.448Z,101240.06
2023-03-19T00:56:12.311Z,101241.65
2023-03-19T00:58:42.561Z,101240.09
2023-03-19T01:01:14.365Z,101238.25
2023-03-19T01:03:45.822Z,101234.48
2023-03-19T01:06:14.296Z,101235.88
2023-03-19T01:08:45.024Z,101238.55
2023-03-19T01:11:18.885Z,101242.23
2023-03-19T01:13:48.276Z,101248.55
2023-03-19T01:16:21.139Z,101245.13
2023-03-19T01:18:49.808Z,101250.79
2023-03-19T01:21:18.903Z,101250.31
2023-03-19T01:23:49.589Z,101249.34
2023-03-19T01:26:18.639Z,101246.86
2023-03-19T01:28:48.792Z,101248.64
2023-03-19T01:31:19.151Z,101247.48
2023-03-19T01:33:56.104Z,101249.00
2023-03-19T01:36:47.555Z,101262.08
2023-03-19T01:39:19.151Z,101253.23
2023-03-19T01:41:48.698Z,101247.77
2023-03-19T01:44:38.942Z,101257.98
2023-03-19T01:47:22.531Z,101256.48
2023-03-19T01:50:22.457Z,101256.45
2023-03-19T01:52:54.559Z,101246.88
2023-03-19T01:55:28.851Z,101242.02
2023-03-19T01:58:15.308Z,101249.92
2023-03-19T02:01:09.038Z,101252.83
2023-03-19T02:03:40.042Z,101246.98
2023-03-19T02:06:30.539Z,101255.55
2023-03-19T02:09:01.056Z,101250.27
2023-03-19T02:11:30.408Z,101248.98
2023-03-19T02:13:59.924Z,101252.58
2023-03-19T02:16:28.984Z,101247.98
2023-03-19T02:18:57.859Z,101251.88
2023-03-19T02:21:27.351Z,101253.80
2023-03-19T02:24:08.116Z,101254.70
2023-03-19T02:26:50.816Z,101268.88
2023-03-19T02:29:19.618Z,101259.99
2023-03-19T02:31:48.825Z,101261.80
2023-03-19T02:34:21.505Z,101262.02
2023-03-19T02:37:21.498Z,101262.99
2023-03-19T02:39:58.073Z,101279.23
2023-03-19T02:42:27.825Z,101268.83
2023-03-19T02:44:57.151Z,101267.22
2023-03-19T02:47:33.191Z,101271.63
2023-03-19T02:50:01.666Z,101267.10
2023-03-19T02:52:30.799Z,101269.51
2023-03-19T02:54:59.202Z,101267.41
2023-03-19T02:57:27.868Z,101270.61
2023-03-19T03:00:02.885Z,101270.79
2023-03-19T03:02:32.884Z,101265.68
2023-03-19T03:05:01.301Z,101268.89
2023-03-19T03:07:30.066Z,101268.77
2023-03-19T03:09:59.798Z,101274.23
2023-03-19T03:12:28.976Z,101269.26
2023-03-19T03:14:58.905Z,101272.04
2023-03-19T03:17:27.360Z,101267.31
2023-03-19T03:19:58.521Z,101267.69
2023-03-19T03:22:27.810Z,101270.95
2023-03-19T03:24:56.736Z,101272.45
2023-03-19T03:27:25.311Z,101270.20
2023-03-19T03:29:53.883Z,101273.65
2023-03-19T03:32:22.574Z,101270.26
2023-03-19T03:34:52.732Z,101273.66
2023-03-19T03:37:21.591Z,101266.67
2023-03-19T03:39:50.052Z,101265.73
2023-03-19T03:42:20.330Z,101267.04
2023-03-19T03:44:48.856Z,101266.16
2023-03-19T03:47:20.977Z,101266.46
2023-03-19T03:49:49.528Z,101267.52
2023-03-19T03:52:18.073Z,101267.40
2023-03-19T03:54:46.508Z,101265.09
2023-03-19T03:57:15.147Z,101266.98
2023-03-19T03:59:46.686Z,101270.14
2023-03-19T04:02:15.660Z,101270.02
2023-03-19T04:04:44.513Z,101270.09
2023-03-19T04:07:14.344Z,101265.19
2023-03-19T04:09:46.613Z,101268.70
2023-03-19T04:12:15.292Z,101259.77
2023-03-19T04:14:49.274Z,101265.20
2023-03-19T04:17:18.457Z,101260.15
2023-03-19T04:19:47.871Z,101260.30
2023-03-19T04:22:17.377Z,101265.06
2023-03-19T04:24:46.309Z,101261.29
2023-03-19T04:27:14.778Z,101265.94
2023-03-19T04:29:44.281Z,101261.38
2023-03-19T04:32:13.109Z,101264.55
2023-03-19T04:34:42.065Z,101270.19
2023-03-19T04:37:11.699Z,101268.85
2023-03-19T04:39:47.208Z,101272.63
2023-03-19T04:42:16.458Z,101274.04
2023-03-19T04:45:01.924Z,101283.25
2023-03-19T04:47:31.120Z,101277.42
2023-03-19T04:50:01.223Z,101278.38
2023-03-19T04:52:31.431Z,101281.44
2023-03-19T04:55:00.856Z,101286.20
2023-03-19T04:57:30.324Z,101286.36
2023-03-19T04:59:59.427Z,101279.65
2023-03-19T05:02:28.357Z,101282.77
2023-03-19T05:04:57.557Z,101280.91
2023-03-19T05:07:26.663Z,101279.27
2023-03-19T05:09:55.216Z,101281.66
2023-03-19T05:12:24.608Z,101276.86
2023-03-19T05:14:53.333Z,101276.38
2023-03-19T05:17:45.162Z,101291.19
2023-03-19T05:20:26.007Z,101288.18
2023-03-19T05:23:03.196Z,101287.38
2023-03-19T05:25:39.012Z,101288.44
2023-03-19T05:28:09.072Z,101284.38
2023-03-19T05:30:38.612Z,101280.27
2023-03-19T05:33:13.666Z,101281.56
2023-03-19T05:35:46.162Z,101280.05
2023-03-19T05:38:28.822Z,101283.21
2023-03-19T05:41:05.330Z,101276.96
2023-03-19T05:43:42.071Z,101281.65
2023-03-19T05:46:14.749Z,101279.57
2023-03-19T05:48:44.373Z,101279.26
2023-03-19T05:51:17.429Z,101280.94
2023-03-19T05:53:47.486Z,101269.83
2023-03-19T05:56:42.381Z,101286.95
2023-03-19T05:59:36.766Z,101286.73
2023-03-19T06:02:26.213Z,101284.68
2023-03-19T06:05:01.214Z,101280.93
2023-03-19T06:07:31.636Z,101275.33
2023-03-19T06:10:00.730Z,101275.79
2023-03-19T06:12:29.920Z,101277.70
2023-03-19T06:15:17.831Z,101287.59
2023-03-19T06:17:46.956Z,101276.64
2023-03-19T06:20:17.176Z,101272.70
2023-03-19T06:22:46.036Z,101273.05
2023-03-19T06:25:16.472Z,101271.41
2023-03-19T06:27:46.940Z,101277.52
2023-03-19T06:30:25.938Z,101281.63
2023-03-19T06:32:59.606Z,101280.42
2023-03-19T06:35:28.300Z,101274.59
2023-03-19T06:37:57.215Z,101272.02
2023-03-19T06:40:25.596Z,101265.63
2023-03-19T06:42:54.270Z,101264.95
2023-03-19T06:45:29.237Z,101267.09
2023-03-19T06:47:58.342Z,101265.19
2023-03-19T06:50:27.528Z,101264.31
2023-03-19T06:52:56.017Z,101260.33
2023-03-19T06:55:24.538Z,101267.48
2023-03-19T06:57:53.001Z,101263.38
2023-03-19T07:00:22.134Z,101261.06
2023-03-19T07:02:51.613Z,101255.59
2023-03-19T07:05:22.755Z,101257.05
2023-03-19T07:07:51.793Z,101254.40
2023-03-19T07:10:20.894Z,101255.20
2023-03-19T07:12:50.970Z,101253.47
2023-03-19T07:15:21.686Z,101254.52
2023-03-19T07:17:50.518Z,101255.04
2023-03-19T07:20:22.629Z,101251.99
2023-03-19T07:22:52.007Z,101251.00
2023-03-19T07:25:20.898Z,101254.52
2023-03-19T07:27:50.120Z,101249.94
2023-03-19T07:30:18.904Z,101250.45
2023-03-19T07:32:47.926Z,101255.48
2023-03-19T07:35:16.863Z,101257.84
2023-03-19T07:37:45.692Z,101254.56
2023-03-19T07:40:20.130Z,101254.42
2023-03-19T07:42:49.935Z,101248.50
2023-03-19T07:45:18.438Z,101238.39
2023-03-19T07:47:50.251Z,101238.23
2023-03-19T07:50:19.704Z,101236.69
2023-03-19T07:52:49.428Z,101235.12
2023-03-19T07:55:17.919Z,101230.75
2023-03-19T07:57:46.683Z,101232.02
2023-03-19T08:00:16.016Z,101235.38
2023-03-19T08:02:47.748Z,101240.58
2023-03-19T08:05:17.053Z,101236.42
2023-03-19T08:07:49.728Z,101238.61
2023-03-19T08:10:18.324Z,101238.14
2023-03-19T08:12:46.997Z,101239.04
2023-03-19T08:15:16.392Z,101244.23
2023-03-19T08:17:47.792Z,101247.34
2023-03-19T08:20:17.157Z,101246.05
2023-03-19T08:22:49.683Z,101246.35
2023-03-19T08:25:18.941Z,101249.98
2023-03-19T08:27:48.637Z,101249.45
2023-03-19T08:30:17.822Z,101237.96
2023-03-19T08:32:46.537Z,101239.25
2023-03-19T08:35:21.381Z,101242.27
2023-03-19T08:37:49.838Z,101231.71
2023-03-19T08:40:18.567Z,101235.11
2023-03-19T08:42:47.538Z,101233.77
2023-03-19T08:45:16.357Z,101231.23
2023-03-19T08:47:44.765Z,101233.89
2023-03-19T08:50:16.120Z,101230.61
2023-03-19T08:52:44.938Z,101235.25
2023-03-19T08:55:13.708Z,101236.45
2023-03-19T08:57:45.748Z,101234.02
2023-03-19T09:00:15.272Z,101231.63
2023-03-19T09:02:50.778Z,101229.71
2023-03-19T09:05:26.312Z,101230.40
2023-03-19T09:08:15.993Z,101234.34
2023-03-19T09:10:51.558Z,101227.70
2023-03-19T09:13:24.968Z,101221.80
2023-03-19T09:15:53.808Z,101219.25
2023-03-19T09:18:30.042Z,101214.26
2023-03-19T09:20:58.907Z,101208.14
2023-03-19T09:23:27.545Z,101202.86
2023-03-19T09:25:55.967Z,101203.85
2023-03-19T09:28:24.465Z,101205.81
2023-03-19T09:30:53.197Z,101213.98
2023-03-19T09:33:23.065Z,101208.98
2023-03-19T09:35:55.684Z,101208.46
2023-03-19T09:38:28.764Z,101208.84
2023-03-19T09:41:21.656Z,101202.98
2023-03-19T09:43:59.315Z,101206.39
2023-03-19T09:46:30.659Z,101208.95
2023-03-19T09:49:12.436Z,101201.45
2023-03-19T09:51:53.014Z,101197.66
2023-03-19T09:54:27.915Z,101185.27
2023-03-19T09:57:00.507Z,101182.83
2023-03-19T09:59:29.188Z,101179.98
2023-03-19T10:02:31.122Z,101176.63
2023-03-19T10:05:32.823Z,101182.61
2023-03-19T10:08:33.068Z,101169.94
2023-03-19T10:11:36.755Z,101167.06
2023-03-19T10:14:05.826Z,101172.88
2023-03-19T10:16:34.670Z,101160.35
2023-03-19T10:19:04.477Z,101163.88
2023-03-19T10:21:35.776Z,101153.48
2023-03-19T10:24:12.563Z,101151.55
2023-03-19T10:26:41.029Z,101161.03
2023-03-19T10:29:19.104Z,101159.56
2023-03-19T10:31:56.748Z,101160.55
2023-03-19T10:34:38.024Z,101155.16
2023-03-19T10:37:14.464Z,101153.09
2023-03-19T10:39:48.725Z,101144.77
2023-03-19T10:42:55.492Z,101146.85
2023-03-19T10:45:30.347Z,101147.82
2023-03-19T10:47:59.931Z,101146.02
2023-03-19T10:50:39.129Z,101143.23
2023-03-19T10:53:27.511Z,101144.95
2023-03-19T10:56:07.609Z,101137.48
2023-03-19T10:58:40.960Z,101134.52
2023-03-19T11:01:12.361Z,101126.04
2023-03-19T11:03:53.402Z,101124.81
2023-03-19T11:06:41.849Z,101138.07
2023-03-19T11:09:16.739Z,101136.39
2023-03-19T11:11:46.276Z,101134.18
2023-03-19T11:14:25.698Z,101126.02
2023-03-19T11:17:04.899Z,101124.16
2023-03-19T11:19:39.610Z,101120.34
2023-03-19T11:22:09.793Z,101125.31
2023-03-19T11:24:39.965Z,101122.05
2023-03-19T11:27:09.516Z,101116.17
2023-03-19T11:29:43.674Z,101112.21
2023-03-19T11:32:34.211Z,101102.36
2023-03-19T11:35:22.219Z,101104.55
2023-03-19T11:38:01.737Z,101099.77
2023-03-19T11:40:55.629Z,101088.41
2023-03-19T11:43:30.919Z,101088.37
2023-03-19T11:46:24.600Z,101084.34
2023-03-19T11:49:35.442Z,101087.98
2023-03-19T11:52:27.391Z,101088.55
2023-03-19T11:55:02.869Z,101091.11
2023-03-19T11:57:51.615Z,101081.94
2023-03-19T12:00:42.958Z,101085.14
2023-03-19T12:03:20.691Z,101083.02
2023-03-19T12:05:52.357Z,101085.25
2023-03-19T12:08:40.152Z,101097.05
2023-03-19T12:11:10.910Z,101099.03
2023-03-19T12:13:48.841Z,101094.55
2023-03-19T12:16:46.457Z,101093.33
2023-03-19T12:19:15.795Z,101097.80
2023-03-19T12:22:15.212Z,101094.20
2023-03-19T12:24:56.745Z,101097.95
2023-03-19T12:27:30.737Z,101098.73
2023-03-19T12:30:34.821Z,101095.71
2023-03-19T12:33:15.788Z,101099.67
2023-03-19T12:35:46.860Z,101100.70
2023-03-19T12:38:21.287Z,101094.71
2023-03-19T12:40:57.236Z,101093.25
2023-03-19T12:43:46.337Z,101092.38
2023-03-19T12:46:24.502Z,101087.21
2023-03-19T12:49:06.920Z,101081.41
2023-03-19T12:51:42.780Z,101081.77
2023-03-19T12:54:36.345Z,101078.39
2023-03-19T12:57:15.743Z,101076.20
2023-03-19T12:59:48.979Z,101076.38
2023-03-19T13:02:39.181Z,101073.56
2023-03-19T13:05:15.504Z,101079.07
2023-03-19T13:08:13.653Z,101083.33
2023-03-19T13:10:42.021Z,101086.35
2023-03-19T13:13:35.587Z,101078.17
2023-03-19T13:16:15.494Z,101075.60
2023-03-19T13:19:19.388Z,101062.07
2023-03-19T13:21:53.428Z,101066.48
2023-03-19T13:24:28.071Z,101059.87
2023-03-19T13:26:56.706Z,101058.29
2023-03-19T13:29:32.277Z,101051.38
2023-03-19T13:32:25.253Z,101048.89
2023-03-19T13:35:23.901Z,101048.86
2023-03-19T13:37:57.191Z,101049.73
2023-03-19T13:40:39.408Z,101043.30
2023-03-19T13:43:28.586Z,101042.48
2023-03-19T13:46:12.137Z,101048.06
2023-03-19T13:48:50.549Z,101043.04
2023-03-19T13:51:26.032Z,101039.25
2023-03-19T13:54:13.787Z,101034.35
2023-03-19T13:57:07.145Z,101030.16
2023-03-19T13:59:38.917Z,101024.86
2023-03-19T14:02:22.827Z,101020.40
2023-03-19T14:04:53.229Z,101021.98
2023-03-19T14:07:23.068Z,101017.21
2023-03-19T14:09:57.760Z,101021.77
2023-03-19T14:12:36.527Z,101022.61
2023-03-19T14:15:25.301Z,101024.86
2023-03-19T14:18:04.911Z,101025.02
2023-03-19T14:20:47.624Z,101023.06
2023-03-19T14:23:23.402Z,101023.91
2023-03-19T14:26:17.078Z,101023.70
2023-03-19T14:29:03.873Z,101030.54
2023-03-19T14:31:46.219Z,101025.57
2023-03-19T14:34:28.175Z,101021.16
2023-03-19T14:37:15.124Z,101017.55
2023-03-19T14:39:44.374Z,101015.65
2023-03-19T14:42:22.586Z,101014.94
2023-03-19T14:45:09.325Z,101018.70
2023-03-19T14:47:49.960Z,101019.43
2023-03-19T14:50:21.509Z,101016.62
2023-03-19T14:53:15.105Z,101016.41
2023-03-19T14:55:52.850Z,101015.72
2023-03-19T14:58:23.672Z,101012.65
2023-03-19T15:00:54.233Z,101008.52
2023-03-19T15:03:33.594Z,101012.29
2023-03-19T15:06:03.658Z,101013.31
2023-03-19T15:08:38.124Z,101011.52
2023-03-19T15:11:16.450Z,101010.70
2023-03-19T15:14:12.838Z,101011.40
2023-03-19T15:16:59.790Z,101017.19
2023-03-19T15:19:30.072Z,101015.86
2023-03-19T15:22:06.492Z,101015.30
2023-03-19T15:24:36.408Z,101015.42
2023-03-19T15:27:21.373Z,101016.27
2023-03-19T15:29:51.648Z,101018.10
2023-03-19T15:32:56.822Z,101019.23
2023-03-19T15:35:33.998Z,101033.54
2023-03-19T15:38:07.598Z,101020.83
2023-03-19T15:40:37.164Z,101021.27
2023-03-19T15:43:06.327Z,101021.33
2023-03-19T15:45:35.419Z,101015.13
2023-03-19T15:48:09.114Z,101017.65
2023-03-19T15:50:37.799Z,101020.43
2023-03-19T15:53:11.964Z,101019.38
2023-03-19T15:55:40.604Z,101026.21
2023-03-19T15:58:12.477Z,101023.52
2023-03-19T16:00:41.538Z,101029.41
2023-03-19T16:03:19.530Z,101034.76
2023-03-19T16:06:02.734Z,101037.80
2023-03-19T16:08:34.492Z,101038.18
2023-03-19T16:11:28.510Z,101035.61
2023-03-19T16:13:58.877Z,101041.90
2023-03-19T16:16:32.629Z,101031.00
2023-03-19T16:19:01.415Z,101035.00
2023-03-19T16:21:36.577Z,101035.52
2023-03-19T16:24:20.339Z,101034.27
2023-03-19T16:26:48.921Z,101040.35
2023-03-19T16:29:41.956Z,101035.20
2023-03-19T16:32:21.657Z,101034.64
2023-03-19T16:34:54.836Z,101032.41
2023-03-19T16:37:32.686Z,101029.04
2023-03-19T16:40:02.546Z,101027.96
2023-03-19T16:42:37.290Z,101024.63
2023-03-19T16:45:15.553Z,101025.42
2023-03-19T16:47:54.257Z,101028.33
2023-03-19T16:50:29.501Z,101025.20
2023-03-19T16:52:58.857Z,101021.20
2023-03-19T16:55:35.299Z,101020.52
2023-03-19T16:58:11.193Z,101021.44
2023-03-19T17:00:39.581Z,101022.47
2023-03-19T17:03:12.624Z,101022.23
2023-03-19T17:05:42.126Z,101025.52
2023-03-19T17:08:12.425Z,101023.88
2023-03-19T17:10:50.973Z,101021.30
2023-03-19T17:13:28.308Z,101021.58
2023-03-19T17:15:59.929Z,101025.70
2023-03-19T17:18:30.954Z,101023.43
2023-03-19T17:21:06.542Z,101025.46
2023-03-19T17:23:38.314Z,101022.88
2023-03-19T17:26:21.606Z,101020.48
2023-03-19T17:28:53.822Z,101026.73
2023-03-19T17:31:27.765Z,101019.65
2023-03-19T17:34:06.686Z,101014.64
2023-03-19T17:36:38.563Z,101015.65
2023-03-19T17:39:07.904Z,101012.42
2023-03-19T17:41:43.526Z,101013.93
2023-03-19T17:44:12.278Z,101010.52
2023-03-19T17:46:43.967Z,101013.42
2023-03-19T17:49:17.227Z,101014.02
2023-03-19T17:51:45.980Z,101014.16
2023-03-19T17:54:20.080Z,101013.26
2023-03-19T17:56:49.363Z,101018.34
2023-03-19T17:59:17.788Z,101016.47
2023-03-19T18:01:49.375Z,101015.80
2023-03-19T18:04:19.967Z,101018.68
2023-03-19T18:06:50.487Z,101018.30
2023-03-19T18:09:23.994Z,101011.98
2023-03-19T18:11:52.516Z,101015.20
2023-03-19T18:14:21.360Z,101014.34
2023-03-19T18:16:51.825Z,101019.20
2023-03-19T18:19:27.719Z,101014.84
2023-03-19T18:21:56.237Z,101018.29
2023-03-19T18:24:25.039Z,101013.95
2023-03-19T18:26:53.554Z,101014.77
2023-03-19T18:29:24.999Z,101014.72
2023-03-19T18:31:53.757Z,101010.45
2023-03-19T18:34:22.216Z,101013.45
2023-03-19T18:36:51.207Z,101013.38
2023-03-19T18:39:19.985Z,101013.94
2023-03-19T18:41:48.600Z,101015.48
2023-03-19T18:44:18.786Z,101013.93
2023-03-19T18:46:47.155Z,101015.05
2023-03-19T18:49:21.188Z,101016.83
2023-03-19T18:52:01.478Z,101017.52
2023-03-19T18:54:32.175Z,101022.59
2023-03-19T18:57:06.023Z,101018.41
2023-03-19T18:59:34.563Z,101015.77
2023-03-19T19:02:25.748Z,101018.39
2023-03-19T19:04:54.198Z,101026.46
2023-03-19T19:07:22.658Z,101013.33
2023-03-19T19:09:52.322Z,101022.01
2023-03-19T19:12:22.050Z,101021.11
2023-03-19T19:14:50.469Z,101020.14
2023-03-19T19:17:21.597Z,101020.38
2023-03-19T19:19:51.527Z,101016.63
2023-03-19T19:22:20.623Z,101013.71
2023-03-19T19:24:49.054Z,101016.67
2023-03-19T19:27:20.462Z,101017.04
2023-03-19T19:29:51.337Z,101021.50
2023-03-19T19:32:25.104Z,101018.34
2023-03-19T19:34:53.740Z,101023.23
2023-03-19T19:37:30.152Z,101021.72
2023-03-19T19:39:59.575Z,101021.52
2023-03-19T19:42:29.546Z,101022.71
2023-03-19T19:45:03.284Z,101023.53
2023-03-19T19:47:32.760Z,101023.93
2023-03-19T19:50:09.877Z,101020.28
2023-03-19T19:52:39.603Z,101020.20
2023-03-19T19:55:08.718Z,101020.75
2023-03-19T19:57:39.094Z,101016.65
2023-03-19T20:00:19.155Z,101018.17
2023-03-19T20:02:49.813Z,101021.13
2023-03-19T20:05:23.448Z,101012.53
2023-03-19T20:07:55.202Z,101017.57
2023-03-19T20:10:29.077Z,101017.61
2023-03-19T20:12:59.975Z,101017.83
2023-03-19T20:15:30.781Z,101016.16
2023-03-19T20:18:03.289Z,101019.65
2023-03-19T20:20:33.265Z,101016.82
2023-03-19T20:23:02.352Z,101011.23
2023-03-19T20:25:33.018Z,101012.58
2023-03-19T20:28:01.838Z,101016.94
2023-03-19T20:30:38.970Z,101016.38
2023-03-19T20:33:07.850Z,101022.88
2023-03-19T20:35:38.866Z,101019.77
2023-03-19T20:38:07.461Z,101019.60
2023-03-19T20:40:44.886Z,101022.83
2023-03-19T20:43:16.993Z,101026.44
2023-03-19T20:45:46.333Z,101021.27
2023-03-19T20:48:17.331Z,101020.33
2023-03-19T20:50:46.955Z,101021.07
2023-03-19T20:53:15.993Z,101020.65
2023-03-19T20:55:45.099Z,101018.80
2023-03-19T20:58:21.317Z,101020.34
2023-03-19T21:00:49.996Z,101024.15
2023-03-19T21:03:22.515Z,101017.98
2023-03-19T21:05:52.520Z,101023.63
2023-03-19T21:08:29.876Z,101020.05
2023-03-19T21:10:58.540Z,101017.64
2023-03-19T21:13:27.791Z,101015.57
2023-03-19T21:15:56.887Z,101020.34
2023-03-19T21:18:25.672Z,101021.96
2023-03-19T21:20:55.330Z,101021.77
2023-03-19T21:23:37.465Z,101020.29
2023-03-19T21:26:17.253Z,101026.89
2023-03-19T21:28:46.886Z,101026.52
2023-03-19T21:31:19.210Z,101019.48
2023-03-19T21:33:49.485Z,101026.92
2023-03-19T21:36:18.009Z,101025.27
2023-03-19T21:38:46.754Z,101021.17
2023-03-19T21:41:37.504Z,101022.48
2023-03-19T21:44:08.144Z,101033.52
2023-03-19T21:46:37.069Z,101024.35
2023-03-19T21:49:06.151Z,101028.40
2023-03-19T21:51:34.637Z,101030.02
2023-03-19T21:54:03.216Z,101030.75
2023-03-19T21:56:38.156Z,101029.29
2023-03-19T21:59:15.258Z,101029.23
2023-03-19T22:01:43.883Z,101025.42
2023-03-19T22:04:12.346Z,101021.21
2023-03-19T22:06:41.042Z,101019.05
2023-03-19T22:09:12.751Z,101021.70
2023-03-19T22:11:44.340Z,101024.23
2023-03-19T22:14:17.988Z,101028.46
2023-03-19T22:16:47.756Z,101023.45
2023-03-19T22:19:19.421Z,101022.77
2023-03-19T22:21:48.291Z,101022.06
2023-03-19T22:24:16.955Z,101019.34
2023-03-19T22:26:47.007Z,101023.13
2023-03-19T22:29:25.810Z,101020.85
2023-03-19T22:31:55.527Z,101021.40
2023-03-19T22:34:26.252Z,101015.58
2023-03-19T22:36:55.951Z,101015.20
2023-03-19T22:39:26.395Z,101015.57
2023-03-19T22:41:55.961Z,101011.61
2023-03-19T22:44:27.343Z,101013.69
2023-03-19T22:46:56.432Z,101013.10
2023-03-19T22:49:25.210Z,101011.80
2023-03-19T22:51:53.944Z,101012.89
2023-03-19T22:54:22.318Z,101013.73
2023-03-19T22:56:50.895Z,101017.66
2023-03-19T22:59:21.928Z,101021.50
2023-03-19T23:01:50.387Z,101013.50
2023-03-19T23:04:45.339Z,101011.34
2023-03-19T23:07:14.968Z,101029.89
2023-03-19T23:09:44.754Z,101016.20
2023-03-19T23:12:15.912Z,101016.52
2023-03-19T23:14:44.430Z,101016.02
2023-03-19T23:17:19.918Z,101018.15
2023-03-19T23:19:52.195Z,101021.44
2023-03-19T23:22:21.076Z,101012.70
2023-03-19T23:24:49.540Z,101013.65
2023-03-19T23:27:23.424Z,101013.48
2023-03-19T23:29:52.669Z,101012.15
2023-03-19T23:32:22.196Z,101012.27
2023-03-19T23:35:00.948Z,101010.88
2023-03-19T23:37:31.135Z,101024.63
2023-03-19T23:40:01.976Z,101022.73
2023-03-19T23:42:31.780Z,101019.86
2023-03-19T23:45:05.465Z,101016.83
2023-03-19T23:47:34.911Z,101015.32
2023-03-19T23:50:04.089Z,101022.27
2023-03-19T23:52:34.795Z,101021.67
2023-03-19T23:55:03.201Z,101022.03
2023-03-19T23:57:33.391Z,101020.59
